Inca Manco Capac International Airport

Airport
ICAO code: 
SPJL
IATA Code: 
JUL
Summary
ICAO Region: 
CARSAM
Territory: 
Location: 
Viyupata, Puno
Serving: 
Juliaca
Elevation: 
12552 ft
Coordinates: 
Aerial View: 
15° 28' 14.525" S, 70° 9' 42.992" W
Metar
Observation
SPJL 021900Z VRB04KT CAVOK 15/M12 Q1034 RMK PP000
Station
Juliaca
Date/Time
2022-07-02 19:00:00
Wind speed
04 kts
Lowest cloud amount
clouds and visibility OK
Temperature
15°C
Dew point
-12°C
Humidity
14%
QNH
1034 hPa
Weather condition
n/a

High-elevation airport serving the city of Juliaca, thirty minutes from the city of Puno at Titicaca Lake.

Climatology

Subtropical Highland climate (Köppen climate classification Cwb).

Runways

Designator Length Width Surface Rops
12/30 4200 46 ASP No/No
Airport map: 
Aerial View: 

SKYbrary Partners:

Safety knowledge contributed by: